Thursday, November 15, 2018, 9:41 AM EST
Back to Local

KABE, Lehigh Valley International Airport

Location: Allentown, PA, United States Lat: 40.65
Local Time: 9:41 AM EST (14:41 GMT) Lon: -75.45
Time Zone: US/Eastern Elev: 393 ft

Show me the last for .
Show Decoded

2018-11-15 08:51 METAR KABE 151351Z 10007KT 10SM FEW036 00/M08 A3051 RMK AO2 SLP338 T00001083 =
2018-11-15 07:51 METAR KABE 151251Z 10007KT 10SM FEW036 M01/M09 A3052 RMK AO2 SLP341 T10061089 =
2018-11-15 06:51 METAR KABE 151151Z 07004KT 10SM CLR M01/M08 A3053 RMK AO2 SLP342 T10061083 11006
                 21017 55011 =
2018-11-15 05:51 METAR KABE 151051Z 06006KT 10SM CLR M01/M08 A3052 RMK AO2 SLP341 T10111083 =
2018-11-15 04:51 METAR KABE 150951Z 05005KT 10SM CLR M01/M07 A3054 RMK AO2 SLP347 T10111072 =
2018-11-15 03:51 METAR KABE 150851Z 04003KT 10SM CLR M01/M08 A3056 RMK AO2 SLP352 T10111078 58004
                 =
2018-11-15 02:51 METAR KABE 150751Z 05004KT 10SM CLR M01/M07 A3058 RMK AO2 SLP360 T10111072 =
2018-11-15 01:51 METAR KABE 150651Z 04004KT 10SM CLR M01/M08 A3056 RMK AO2 SLP352 T10111078 =
2018-11-15 00:51 METAR KABE 150551Z 05006KT 10SM CLR M01/M08 A3057 RMK AO2 SLP356 T10111083 10011
                 21011 58001 =
2018-11-14 23:51 METAR KABE 150451Z 06004KT 10SM CLR M01/M09 A3058 RMK AO2 SLP360 T10061089
                 400501011 =
2018-11-14 22:51 METAR KABE 150351Z 05005KT 10SM CLR M01/M08 A3058 RMK AO2 SLP359 T10061083 =
2018-11-14 21:51 METAR KABE 150251Z 04005KT 10SM CLR M01/M09 A3058 RMK AO2 SLP358 T10061089 53018
                 =
2018-11-14 20:51 METAR KABE 150151Z 02006KT 10SM CLR 00/M09 A3055 RMK AO2 SLP350 T00001089 =
2018-11-14 19:51 METAR KABE 150051Z 03007KT 10SM CLR 01/M08 A3053 RMK AO2 SLP344 T00061083 =
2018-11-14 18:51 METAR KABE 142351Z 01008KT 10SM CLR 01/M09 A3052 RMK AO2 SLP339 T00111089 10050
                 20011 53014 =
2018-11-14 17:51 METAR KABE 142251Z 35005KT 10SM CLR 02/M09 A3050 RMK AO2 SLP333 T00171089 =
2018-11-14 16:51 METAR KABE 142151Z 33009KT 10SM CLR 02/M09 A3049 RMK AO2 SLP328 T00221094 =
2018-11-14 15:51 METAR KABE 142051Z 33010KT 10SM CLR 03/M09 A3048 RMK AO2 SLP325 T00281094 53016
                 =
2018-11-14 14:51 METAR KABE 141951Z 31008KT 10SM CLR 03/M08 A3046 RMK AO2 SLP316 T00331083 =
2018-11-14 13:51 METAR KABE 141851Z 31012G17KT 10SM CLR 05/M08 A3043 RMK AO2 SLP309 T00501078 =
2018-11-14 12:51 METAR KABE 141751Z 33009KT 10SM CLR 04/M07 A3043 RMK AO2 SLP308 T00441072 10044
                 20017 50003 =
2018-11-14 11:51 METAR KABE 141651Z 32012G21KT 10SM CLR 04/M08 A3043 RMK AO2 SLP308 T00441078 =
2018-11-14 10:51 METAR KABE 141551Z 32014G19KT 10SM CLR 04/M07 A3044 RMK AO2 SLP310 T00391072 =
2018-11-14 09:51 METAR KABE 141451Z 31011KT 10SM CLR 03/M07 A3042 RMK AO2 SLP305 T00331072 51030
                 =

Support USWX by starting your Amazon purchase here.